sensor_id;sensor_type;location;lat;lon;timestamp;P1;durP1;ratioP1;P2;durP2;ratioP2
58621;SDS011;44389;51.578;5.456;2022-09-09T00:00:17;7.60;;;3.30;;
58621;SDS011;44389;51.578;5.456;2022-09-09T00:02:45;6.30;;;3.15;;
58621;SDS011;44389;51.578;5.456;2022-09-09T00:08:19;6.25;;;2.97;;
58621;SDS011;44389;51.578;5.456;2022-09-09T00:10:51;5.13;;;3.30;;
58621;SDS011;44389;51.578;5.456;2022-09-09T00:16:13;6.47;;;3.78;;
58621;SDS011;44389;51.578;5.456;2022-09-09T00:19:00;5.80;;;3.30;;
58621;SDS011;44389;51.578;5.456;2022-09-09T00:21:33;7.45;;;3.80;;
58621;SDS011;44389;51.578;5.456;2022-09-09T00:31:37;7.15;;;3.33;;
58621;SDS011;44389;51.578;5.456;2022-09-09T00:34:13;6.10;;;3.03;;
58621;SDS011;44389;51.578;5.456;2022-09-09T00:36:46;5.20;;;3.20;;
58621;SDS011;44389;51.578;5.456;2022-09-09T00:39:34;6.15;;;3.22;;
58621;SDS011;44389;51.578;5.456;2022-09-09T00:44:56;4.90;;;2.97;;
58621;SDS011;44389;51.578;5.456;2022-09-09T00:52:46;6.15;;;2.80;;
58621;SDS011;44389;51.578;5.456;2022-09-09T00:55:25;7.18;;;3.03;;
58621;SDS011;44389;51.578;5.456;2022-09-09T00:57:58;4.82;;;3.03;;
58621;SDS011;44389;51.578;5.456;2022-09-09T01:00:27;7.32;;;2.60;;
58621;SDS011;44389;51.578;5.456;2022-09-09T01:03:10;5.78;;;3.08;;
58621;SDS011;44389;51.578;5.456;2022-09-09T01:08:11;7.18;;;2.88;;
58621;SDS011;44389;51.578;5.456;2022-09-09T01:10:50;6.65;;;3.30;;
58621;SDS011;44389;51.578;5.456;2022-09-09T01:13:27;5.80;;;3.00;;
58621;SDS011;44389;51.578;5.456;2022-09-09T01:15:55;6.03;;;3.10;;
58621;SDS011;44389;51.578;5.456;2022-09-09T01:18:25;10.65;;;3.10;;
58621;SDS011;44389;51.578;5.456;2022-09-09T01:26:54;7.97;;;3.25;;
58621;SDS011;44389;51.578;5.456;2022-09-09T01:29:22;7.90;;;3.17;;
58621;SDS011;44389;51.578;5.456;2022-09-09T01:31:52;8.75;;;3.58;;
58621;SDS011;44389;51.578;5.456;2022-09-09T01:34:27;5.37;;;3.03;;
58621;SDS011;44389;51.578;5.456;2022-09-09T01:37:02;8.00;;;3.22;;
58621;SDS011;44389;51.578;5.456;2022-09-09T01:39:32;7.32;;;3.08;;
58621;SDS011;44389;51.578;5.456;2022-09-09T01:41:59;6.20;;;3.47;;
58621;SDS011;44389;51.578;5.456;2022-09-09T01:44:26;9.90;;;3.47;;
58621;SDS011;44389;51.578;5.456;2022-09-09T01:46:53;8.20;;;3.87;;
58621;SDS011;44389;51.578;5.456;2022-09-09T01:49:18;11.80;;;3.63;;
58621;SDS011;44389;51.578;5.456;2022-09-09T01:51:43;8.95;;;4.22;;
58621;SDS011;44389;51.578;5.456;2022-09-09T01:54:13;7.55;;;3.67;;
58621;SDS011;44389;51.578;5.456;2022-09-09T01:56:57;9.23;;;3.83;;
58621;SDS011;44389;51.578;5.456;2022-09-09T01:59:53;10.27;;;4.10;;
58621;SDS011;44389;51.578;5.456;2022-09-09T02:08:18;7.45;;;3.78;;
58621;SDS011;44389;51.578;5.456;2022-09-09T02:13:36;10.02;;;4.35;;
58621;SDS011;44389;51.578;5.456;2022-09-09T02:16:13;9.93;;;3.80;;
58621;SDS011;44389;51.578;5.456;2022-09-09T02:21:22;7.32;;;4.20;;
58621;SDS011;44389;51.578;5.456;2022-09-09T02:23:49;11.30;;;5.38;;
58621;SDS011;44389;51.578;5.456;2022-09-09T02:26:17;10.65;;;4.78;;
58621;SDS011;44389;51.578;5.456;2022-09-09T02:28:47;11.15;;;4.90;;
58621;SDS011;44389;51.578;5.456;2022-09-09T02:31:15;9.40;;;4.55;;
58621;SDS011;44389;51.578;5.456;2022-09-09T02:33:44;11.70;;;5.30;;
58621;SDS011;44389;51.578;5.456;2022-09-09T02:36:15;10.77;;;4.60;;
58621;SDS011;44389;51.578;5.456;2022-09-09T02:38:42;12.25;;;4.68;;
58621;SDS011;44389;51.578;5.456;2022-09-09T02:41:15;10.05;;;5.10;;
58621;SDS011;44389;51.578;5.456;2022-09-09T02:43:40;11.05;;;5.05;;
58621;SDS011;44389;51.578;5.456;2022-09-09T02:49:05;11.48;;;4.88;;
58621;SDS011;44389;51.578;5.456;2022-09-09T02:51:40;10.63;;;6.07;;
58621;SDS011;44389;51.578;5.456;2022-09-09T02:54:27;11.38;;;5.10;;
58621;SDS011;44389;51.578;5.456;2022-09-09T02:57:19;10.80;;;5.13;;
58621;SDS011;44389;51.578;5.456;2022-09-09T02:59:44;9.95;;;5.07;;
58621;SDS011;44389;51.578;5.456;2022-09-09T03:02:11;10.13;;;5.23;;
58621;SDS011;44389;51.578;5.456;2022-09-09T03:04:37;12.20;;;5.10;;
58621;SDS011;44389;51.578;5.456;2022-09-09T03:07:03;13.05;;;5.70;;
58621;SDS011;44389;51.578;5.456;2022-09-09T03:09:29;13.30;;;5.57;;
58621;SDS011;44389;51.578;5.456;2022-09-09T03:11:55;11.50;;;5.53;;
58621;SDS011;44389;51.578;5.456;2022-09-09T03:14:21;13.32;;;5.78;;
58621;SDS011;44389;51.578;5.456;2022-09-09T03:16:49;13.85;;;5.47;;
58621;SDS011;44389;51.578;5.456;2022-09-09T03:19:16;12.38;;;4.95;;
58621;SDS011;44389;51.578;5.456;2022-09-09T03:21:41;10.05;;;5.22;;
58621;SDS011;44389;51.578;5.456;2022-09-09T03:24:06;13.43;;;5.70;;
58621;SDS011;44389;51.578;5.456;2022-09-09T03:26:32;8.85;;;5.00;;
58621;SDS011;44389;51.578;5.456;2022-09-09T03:28:58;14.45;;;5.18;;
58621;SDS011;44389;51.578;5.456;2022-09-09T03:31:25;12.50;;;5.22;;
58621;SDS011;44389;51.578;5.456;2022-09-09T03:33:51;13.20;;;5.18;;
58621;SDS011;44389;51.578;5.456;2022-09-09T03:36:16;12.35;;;5.72;;
58621;SDS011;44389;51.578;5.456;2022-09-09T03:38:42;13.30;;;5.50;;
58621;SDS011;44389;51.578;5.456;2022-09-09T03:41:07;12.70;;;5.45;;
58621;SDS011;44389;51.578;5.456;2022-09-09T03:43:32;11.70;;;5.63;;
58621;SDS011;44389;51.578;5.456;2022-09-09T03:45:58;11.50;;;4.95;;
58621;SDS011;44389;51.578;5.456;2022-09-09T03:48:24;11.68;;;4.40;;
58621;SDS011;44389;51.578;5.456;2022-09-09T03:50:51;14.07;;;5.50;;
58621;SDS011;44389;51.578;5.456;2022-09-09T03:53:18;10.68;;;4.68;;
58621;SDS011;44389;51.578;5.456;2022-09-09T03:55:49;11.60;;;4.80;;
58621;SDS011;44389;51.578;5.456;2022-09-09T03:58:19;10.65;;;4.72;;
58621;SDS011;44389;51.578;5.456;2022-09-09T04:01:19;9.88;;;4.75;;
58621;SDS011;44389;51.578;5.456;2022-09-09T04:03:38;12.75;;;4.35;;
58621;SDS011;44389;51.578;5.456;2022-09-09T04:06:04;13.32;;;5.18;;
58621;SDS011;44389;51.578;5.456;2022-09-09T04:10:56;11.43;;;4.70;;
58621;SDS011;44389;51.578;5.456;2022-09-09T04:13:23;13.45;;;5.38;;
58621;SDS011;44389;51.578;5.456;2022-09-09T04:15:52;13.52;;;5.20;;
58621;SDS011;44389;51.578;5.456;2022-09-09T04:18:19;17.95;;;5.22;;
58621;SDS011;44389;51.578;5.456;2022-09-09T04:20:48;10.20;;;5.05;;
58621;SDS011;44389;51.578;5.456;2022-09-09T04:23:15;14.13;;;5.20;;
58621;SDS011;44389;51.578;5.456;2022-09-09T04:25:47;13.30;;;5.50;;
58621;SDS011;44389;51.578;5.456;2022-09-09T04:28:15;13.57;;;5.18;;
58621;SDS011;44389;51.578;5.456;2022-09-09T04:30:41;12.48;;;4.82;;
58621;SDS011;44389;51.578;5.456;2022-09-09T04:33:07;16.30;;;5.13;;
58621;SDS011;44389;51.578;5.456;2022-09-09T04:35:33;11.05;;;4.82;;
58621;SDS011;44389;51.578;5.456;2022-09-09T04:37:59;11.18;;;5.38;;
58621;SDS011;44389;51.578;5.456;2022-09-09T04:40:24;11.40;;;5.10;;
58621;SDS011;44389;51.578;5.456;2022-09-09T04:42:50;13.63;;;5.82;;
58621;SDS011;44389;51.578;5.456;2022-09-09T04:45:15;12.00;;;5.00;;
58621;SDS011;44389;51.578;5.456;2022-09-09T04:47:41;13.10;;;5.43;;
58621;SDS011;44389;51.578;5.456;2022-09-09T04:50:07;12.93;;;4.82;;
58621;SDS011;44389;51.578;5.456;2022-09-09T04:52:34;11.98;;;5.55;;
58621;SDS011;44389;51.578;5.456;2022-09-09T04:55:00;15.43;;;5.05;;
58621;SDS011;44389;51.578;5.456;2022-09-09T04:57:26;10.40;;;4.85;;
58621;SDS011;44389;51.578;5.456;2022-09-09T04:59:51;14.20;;;5.15;;
58621;SDS011;44389;51.578;5.456;2022-09-09T05:02:16;13.60;;;5.00;;
58621;SDS011;44389;51.578;5.456;2022-09-09T05:04:41;13.07;;;4.82;;
58621;SDS011;44389;51.578;5.456;2022-09-09T05:07:07;12.75;;;5.32;;
58621;SDS011;44389;51.578;5.456;2022-09-09T05:09:32;15.07;;;5.32;;
58621;SDS011;44389;51.578;5.456;2022-09-09T05:11:58;17.65;;;5.32;;
58621;SDS011;44389;51.578;5.456;2022-09-09T05:14:23;13.07;;;5.10;;
58621;SDS011;44389;51.578;5.456;2022-09-09T05:16:48;14.38;;;5.07;;
58621;SDS011;44389;51.578;5.456;2022-09-09T05:19:15;11.88;;;5.00;;
58621;SDS011;44389;51.578;5.456;2022-09-09T05:21:40;12.55;;;4.35;;
58621;SDS011;44389;51.578;5.456;2022-09-09T05:24:06;15.05;;;5.10;;
58621;SDS011;44389;51.578;5.456;2022-09-09T05:26:32;13.27;;;4.55;;
58621;SDS011;44389;51.578;5.456;2022-09-09T05:28:57;11.55;;;4.70;;
58621;SDS011;44389;51.578;5.456;2022-09-09T05:31:24;10.45;;;4.85;;
58621;SDS011;44389;51.578;5.456;2022-09-09T05:33:53;12.52;;;4.55;;
58621;SDS011;44389;51.578;5.456;2022-09-09T05:36:20;12.50;;;4.82;;
58621;SDS011;44389;51.578;5.456;2022-09-09T05:38:46;15.27;;;4.43;;
58621;SDS011;44389;51.578;5.456;2022-09-09T05:41:12;14.25;;;4.93;;
58621;SDS011;44389;51.578;5.456;2022-09-09T05:43:40;15.60;;;4.70;;
58621;SDS011;44389;51.578;5.456;2022-09-09T05:46:07;11.82;;;4.60;;
58621;SDS011;44389;51.578;5.456;2022-09-09T05:48:35;17.48;;;4.80;;
58621;SDS011;44389;51.578;5.456;2022-09-09T05:51:05;11.60;;;4.68;;
58621;SDS011;44389;51.578;5.456;2022-09-09T05:53:32;14.57;;;5.18;;
58621;SDS011;44389;51.578;5.456;2022-09-09T05:56:06;15.80;;;4.93;;
58621;SDS011;44389;51.578;5.456;2022-09-09T05:58:37;12.63;;;4.93;;
58621;SDS011;44389;51.578;5.456;2022-09-09T06:01:04;13.15;;;4.63;;
58621;SDS011;44389;51.578;5.456;2022-09-09T06:03:35;15.90;;;4.90;;
58621;SDS011;44389;51.578;5.456;2022-09-09T06:06:02;14.95;;;4.40;;
58621;SDS011;44389;51.578;5.456;2022-09-09T06:08:33;13.60;;;4.93;;
58621;SDS011;44389;51.578;5.456;2022-09-09T06:11:08;14.48;;;4.80;;
58621;SDS011;44389;51.578;5.456;2022-09-09T06:13:34;15.63;;;4.80;;
58621;SDS011;44389;51.578;5.456;2022-09-09T06:16:02;18.90;;;5.20;;
58621;SDS011;44389;51.578;5.456;2022-09-09T06:18:27;12.13;;;4.25;;
58621;SDS011;44389;51.578;5.456;2022-09-09T06:20:56;13.75;;;4.60;;
58621;SDS011;44389;51.578;5.456;2022-09-09T06:23:22;14.35;;;4.75;;
58621;SDS011;44389;51.578;5.456;2022-09-09T06:25:48;15.27;;;4.90;;
58621;SDS011;44389;51.578;5.456;2022-09-09T06:28:14;15.15;;;4.78;;
58621;SDS011;44389;51.578;5.456;2022-09-09T06:30:40;15.30;;;5.00;;
58621;SDS011;44389;51.578;5.456;2022-09-09T06:33:06;17.30;;;4.72;;
58621;SDS011;44389;51.578;5.456;2022-09-09T06:35:31;12.65;;;4.30;;
58621;SDS011;44389;51.578;5.456;2022-09-09T06:37:57;13.98;;;4.25;;
58621;SDS011;44389;51.578;5.456;2022-09-09T06:40:23;19.25;;;4.30;;
58621;SDS011;44389;51.578;5.456;2022-09-09T06:42:49;13.07;;;3.88;;
58621;SDS011;44389;51.578;5.456;2022-09-09T06:45:14;15.68;;;4.63;;
58621;SDS011;44389;51.578;5.456;2022-09-09T06:47:39;14.35;;;4.28;;
58621;SDS011;44389;51.578;5.456;2022-09-09T06:50:06;16.73;;;4.72;;
58621;SDS011;44389;51.578;5.456;2022-09-09T06:52:33;15.68;;;4.18;;
58621;SDS011;44389;51.578;5.456;2022-09-09T06:54:58;15.65;;;3.95;;
58621;SDS011;44389;51.578;5.456;2022-09-09T06:57:24;16.48;;;4.38;;
58621;SDS011;44389;51.578;5.456;2022-09-09T06:59:49;13.40;;;4.50;;
58621;SDS011;44389;51.578;5.456;2022-09-09T07:02:14;13.13;;;4.68;;
58621;SDS011;44389;51.578;5.456;2022-09-09T07:04:40;14.50;;;5.07;;
58621;SDS011;44389;51.578;5.456;2022-09-09T07:07:05;15.43;;;4.47;;
58621;SDS011;44389;51.578;5.456;2022-09-09T07:09:30;16.90;;;4.55;;
58621;SDS011;44389;51.578;5.456;2022-09-09T07:11:56;13.13;;;4.07;;
58621;SDS011;44389;51.578;5.456;2022-09-09T07:14:24;18.05;;;4.32;;
58621;SDS011;44389;51.578;5.456;2022-09-09T07:16:49;12.75;;;3.58;;
58621;SDS011;44389;51.578;5.456;2022-09-09T07:19:15;17.40;;;4.68;;
58621;SDS011;44389;51.578;5.456;2022-09-09T07:21:40;14.57;;;4.30;;
58621;SDS011;44389;51.578;5.456;2022-09-09T07:24:06;13.30;;;3.58;;
58621;SDS011;44389;51.578;5.456;2022-09-09T07:26:35;14.43;;;3.50;;
58621;SDS011;44389;51.578;5.456;2022-09-09T07:29:01;12.27;;;3.38;;
58621;SDS011;44389;51.578;5.456;2022-09-09T07:31:28;10.70;;;3.22;;
58621;SDS011;44389;51.578;5.456;2022-09-09T07:33:59;14.75;;;3.55;;
58621;SDS011;44389;51.578;5.456;2022-09-09T07:36:29;15.75;;;3.60;;
58621;SDS011;44389;51.578;5.456;2022-09-09T07:38:56;11.85;;;2.92;;
58621;SDS011;44389;51.578;5.456;2022-09-09T07:41:25;12.10;;;3.00;;
58621;SDS011;44389;51.578;5.456;2022-09-09T07:43:53;12.25;;;2.92;;
58621;SDS011;44389;51.578;5.456;2022-09-09T07:46:19;12.65;;;3.10;;
58621;SDS011;44389;51.578;5.456;2022-09-09T07:48:47;9.40;;;2.80;;
58621;SDS011;44389;51.578;5.456;2022-09-09T07:51:16;12.82;;;3.15;;
58621;SDS011;44389;51.578;5.456;2022-09-09T07:53:43;13.02;;;3.05;;
58621;SDS011;44389;51.578;5.456;2022-09-09T07:56:10;17.33;;;3.30;;
58621;SDS011;44389;51.578;5.456;2022-09-09T08:01:06;10.55;;;3.08;;
58621;SDS011;44389;51.578;5.456;2022-09-09T08:03:37;17.77;;;3.97;;
58621;SDS011;44389;51.578;5.456;2022-09-09T08:06:03;11.82;;;3.38;;
58621;SDS011;44389;51.578;5.456;2022-09-09T08:08:31;9.75;;;3.13;;
58621;SDS011;44389;51.578;5.456;2022-09-09T08:11:06;12.13;;;2.97;;
58621;SDS011;44389;51.578;5.456;2022-09-09T08:13:35;11.43;;;2.45;;
58621;SDS011;44389;51.578;5.456;2022-09-09T08:16:05;11.68;;;3.22;;
58621;SDS011;44389;51.578;5.456;2022-09-09T08:18:32;14.68;;;3.25;;
58621;SDS011;44389;51.578;5.456;2022-09-09T08:20:57;9.73;;;2.78;;
58621;SDS011;44389;51.578;5.456;2022-09-09T08:23:22;12.13;;;2.88;;
58621;SDS011;44389;51.578;5.456;2022-09-09T08:25:48;13.82;;;3.45;;
58621;SDS011;44389;51.578;5.456;2022-09-09T08:28:13;9.10;;;2.42;;
58621;SDS011;44389;51.578;5.456;2022-09-09T08:30:39;13.95;;;3.03;;
58621;SDS011;44389;51.578;5.456;2022-09-09T08:33:04;12.88;;;2.80;;
58621;SDS011;44389;51.578;5.456;2022-09-09T08:35:30;13.50;;;3.15;;
58621;SDS011;44389;51.578;5.456;2022-09-09T08:37:57;14.88;;;3.20;;
58621;SDS011;44389;51.578;5.456;2022-09-09T08:40:25;11.88;;;2.75;;
58621;SDS011;44389;51.578;5.456;2022-09-09T08:42:54;9.25;;;2.45;;
58621;SDS011;44389;51.578;5.456;2022-09-09T08:45:25;13.05;;;3.38;;
58621;SDS011;44389;51.578;5.456;2022-09-09T08:48:02;11.18;;;3.00;;
58621;SDS011;44389;51.578;5.456;2022-09-09T08:50:29;9.60;;;2.67;;
58621;SDS011;44389;51.578;5.456;2022-09-09T09:03:41;10.50;;;2.92;;
58621;SDS011;44389;51.578;5.456;2022-09-09T09:11:26;11.23;;;2.65;;
58621;SDS011;44389;51.578;5.456;2022-09-09T09:18:59;10.25;;;3.08;;
58621;SDS011;44389;51.578;5.456;2022-09-09T09:24:05;13.27;;;2.70;;
58621;SDS011;44389;51.578;5.456;2022-09-09T09:26:40;11.88;;;2.63;;
58621;SDS011;44389;51.578;5.456;2022-09-09T09:29:13;12.85;;;2.70;;
58621;SDS011;44389;51.578;5.456;2022-09-09T09:31:42;16.10;;;2.63;;
58621;SDS011;44389;51.578;5.456;2022-09-09T09:34:11;12.55;;;2.90;;
58621;SDS011;44389;51.578;5.456;2022-09-09T09:39:09;10.50;;;2.38;;
58621;SDS011;44389;51.578;5.456;2022-09-09T09:41:38;9.45;;;2.15;;
58621;SDS011;44389;51.578;5.456;2022-09-09T09:44:18;11.48;;;3.15;;
58621;SDS011;44389;51.578;5.456;2022-09-09T09:46:48;8.95;;;2.50;;
58621;SDS011;44389;51.578;5.456;2022-09-09T09:49:13;11.20;;;2.72;;
58621;SDS011;44389;51.578;5.456;2022-09-09T09:51:39;13.25;;;3.28;;
58621;SDS011;44389;51.578;5.456;2022-09-09T09:54:27;10.73;;;2.80;;
58621;SDS011;44389;51.578;5.456;2022-09-09T09:56:55;9.25;;;3.20;;
58621;SDS011;44389;51.578;5.456;2022-09-09T09:59:21;11.02;;;2.75;;
58621;SDS011;44389;51.578;5.456;2022-09-09T10:01:48;14.52;;;3.25;;
58621;SDS011;44389;51.578;5.456;2022-09-09T10:04:15;12.15;;;3.20;;
58621;SDS011;44389;51.578;5.456;2022-09-09T10:06:43;10.27;;;2.70;;
58621;SDS011;44389;51.578;5.456;2022-09-09T10:09:25;13.13;;;3.17;;
58621;SDS011;44389;51.578;5.456;2022-09-09T10:17:23;11.68;;;3.20;;
58621;SDS011;44389;51.578;5.456;2022-09-09T10:20:10;10.38;;;3.20;;
58621;SDS011;44389;51.578;5.456;2022-09-09T10:36:26;13.20;;;3.58;;
58621;SDS011;44389;51.578;5.456;2022-09-09T10:39:12;12.57;;;2.95;;
58621;SDS011;44389;51.578;5.456;2022-09-09T10:42:05;12.50;;;3.10;;
58621;SDS011;44389;51.578;5.456;2022-09-09T10:44:42;10.77;;;3.22;;
58621;SDS011;44389;51.578;5.456;2022-09-09T10:55:53;12.15;;;3.15;;
58621;SDS011;44389;51.578;5.456;2022-09-09T10:58:26;10.15;;;2.95;;
58621;SDS011;44389;51.578;5.456;2022-09-09T11:01:00;11.40;;;2.75;;
58621;SDS011;44389;51.578;5.456;2022-09-09T11:03:34;11.05;;;2.90;;
58621;SDS011;44389;51.578;5.456;2022-09-09T11:06:06;11.73;;;3.20;;
58621;SDS011;44389;51.578;5.456;2022-09-09T11:08:38;11.88;;;3.30;;
58621;SDS011;44389;51.578;5.456;2022-09-09T11:11:09;11.35;;;3.13;;
58621;SDS011;44389;51.578;5.456;2022-09-09T11:21:59;8.70;;;3.40;;
58621;SDS011;44389;51.578;5.456;2022-09-09T11:24:37;9.48;;;2.67;;
58621;SDS011;44389;51.578;5.456;2022-09-09T11:27:17;8.68;;;3.13;;
58621;SDS011;44389;51.578;5.456;2022-09-09T11:32:28;8.23;;;2.90;;
58621;SDS011;44389;51.578;5.456;2022-09-09T11:40:43;9.15;;;3.03;;
58621;SDS011;44389;51.578;5.456;2022-09-09T11:43:13;11.57;;;3.65;;
58621;SDS011;44389;51.578;5.456;2022-09-09T11:45:42;10.02;;;3.78;;
58621;SDS011;44389;51.578;5.456;2022-09-09T11:51:05;12.70;;;2.88;;
58621;SDS011;44389;51.578;5.456;2022-09-09T11:53:33;8.13;;;2.80;;
58621;SDS011;44389;51.578;5.456;2022-09-09T11:58:36;7.30;;;3.10;;
58621;SDS011;44389;51.578;5.456;2022-09-09T12:01:15;11.05;;;3.20;;
58621;SDS011;44389;51.578;5.456;2022-09-09T12:04:14;8.57;;;3.17;;
58621;SDS011;44389;51.578;5.456;2022-09-09T12:06:43;10.10;;;2.75;;
58621;SDS011;44389;51.578;5.456;2022-09-09T12:11:51;13.57;;;3.22;;
58621;SDS011;44389;51.578;5.456;2022-09-09T12:14:34;8.25;;;2.70;;
58621;SDS011;44389;51.578;5.456;2022-09-09T12:17:36;6.47;;;2.58;;
58621;SDS011;44389;51.578;5.456;2022-09-09T12:20:38;12.15;;;2.95;;
58621;SDS011;44389;51.578;5.456;2022-09-09T12:28:22;8.45;;;2.92;;
58621;SDS011;44389;51.578;5.456;2022-09-09T12:31:00;6.85;;;2.45;;
58621;SDS011;44389;51.578;5.456;2022-09-09T12:33:34;8.18;;;2.22;;
58621;SDS011;44389;51.578;5.456;2022-09-09T12:36:02;8.00;;;2.53;;
58621;SDS011;44389;51.578;5.456;2022-09-09T12:38:39;7.15;;;2.10;;
58621;SDS011;44389;51.578;5.456;2022-09-09T12:41:05;14.63;;;2.60;;
58621;SDS011;44389;51.578;5.456;2022-09-09T12:43:31;10.30;;;2.60;;
58621;SDS011;44389;51.578;5.456;2022-09-09T12:46:07;6.53;;;1.92;;
58621;SDS011;44389;51.578;5.456;2022-09-09T12:48:39;8.07;;;2.30;;
58621;SDS011;44389;51.578;5.456;2022-09-09T12:51:19;8.73;;;2.40;;
58621;SDS011;44389;51.578;5.456;2022-09-09T12:53:50;8.65;;;2.10;;
58621;SDS011;44389;51.578;5.456;2022-09-09T12:56:19;8.50;;;2.25;;
58621;SDS011;44389;51.578;5.456;2022-09-09T12:58:47;10.13;;;2.78;;
58621;SDS011;44389;51.578;5.456;2022-09-09T13:01:26;7.65;;;2.40;;
58621;SDS011;44389;51.578;5.456;2022-09-09T13:03:57;12.20;;;3.35;;
58621;SDS011;44389;51.578;5.456;2022-09-09T13:06:26;12.77;;;3.60;;
58621;SDS011;44389;51.578;5.456;2022-09-09T13:09:00;10.02;;;3.42;;
58621;SDS011;44389;51.578;5.456;2022-09-09T13:11:42;8.80;;;3.40;;
58621;SDS011;44389;51.578;5.456;2022-09-09T13:14:19;12.38;;;3.78;;
58621;SDS011;44389;51.578;5.456;2022-09-09T13:16:55;10.00;;;3.10;;
58621;SDS011;44389;51.578;5.456;2022-09-09T13:19:22;12.52;;;3.47;;
58621;SDS011;44389;51.578;5.456;2022-09-09T13:21:50;9.52;;;2.90;;
58621;SDS011;44389;51.578;5.456;2022-09-09T13:24:34;6.15;;;2.70;;
58621;SDS011;44389;51.578;5.456;2022-09-09T13:27:01;8.60;;;3.08;;
58621;SDS011;44389;51.578;5.456;2022-09-09T13:29:28;7.05;;;2.75;;
58621;SDS011;44389;51.578;5.456;2022-09-09T13:32:15;7.40;;;2.25;;
58621;SDS011;44389;51.578;5.456;2022-09-09T13:34:50;6.85;;;2.25;;
58621;SDS011;44389;51.578;5.456;2022-09-09T13:37:22;8.75;;;2.03;;
58621;SDS011;44389;51.578;5.456;2022-09-09T13:39:56;7.95;;;1.85;;
58621;SDS011;44389;51.578;5.456;2022-09-09T13:42:26;10.48;;;2.33;;
58621;SDS011;44389;51.578;5.456;2022-09-09T13:44:53;5.43;;;1.92;;
58621;SDS011;44389;51.578;5.456;2022-09-09T13:47:28;5.63;;;1.80;;
58621;SDS011;44389;51.578;5.456;2022-09-09T13:49:56;7.10;;;2.05;;
58621;SDS011;44389;51.578;5.456;2022-09-09T13:52:22;8.55;;;2.20;;
58621;SDS011;44389;51.578;5.456;2022-09-09T13:54:48;9.68;;;2.80;;
58621;SDS011;44389;51.578;5.456;2022-09-09T13:59:45;12.65;;;2.28;;
58621;SDS011;44389;51.578;5.456;2022-09-09T14:02:11;8.77;;;1.95;;
58621;SDS011;44389;51.578;5.456;2022-09-09T14:04:36;8.27;;;2.28;;
58621;SDS011;44389;51.578;5.456;2022-09-09T14:07:02;5.70;;;2.30;;
58621;SDS011;44389;51.578;5.456;2022-09-09T14:09:28;6.95;;;2.13;;
58621;SDS011;44389;51.578;5.456;2022-09-09T14:11:53;6.10;;;1.90;;
58621;SDS011;44389;51.578;5.456;2022-09-09T14:14:20;7.60;;;2.00;;
58621;SDS011;44389;51.578;5.456;2022-09-09T14:16:45;5.85;;;2.20;;
58621;SDS011;44389;51.578;5.456;2022-09-09T14:19:11;6.95;;;1.90;;
58621;SDS011;44389;51.578;5.456;2022-09-09T14:21:36;7.68;;;2.28;;
58621;SDS011;44389;51.578;5.456;2022-09-09T14:24:01;7.28;;;2.25;;
58621;SDS011;44389;51.578;5.456;2022-09-09T14:26:27;5.75;;;1.90;;
58621;SDS011;44389;51.578;5.456;2022-09-09T14:28:53;7.00;;;2.13;;
58621;SDS011;44389;51.578;5.456;2022-09-09T14:31:19;6.78;;;2.10;;
58621;SDS011;44389;51.578;5.456;2022-09-09T14:33:45;7.10;;;1.90;;
58621;SDS011;44389;51.578;5.456;2022-09-09T14:36:11;7.07;;;2.08;;
58621;SDS011;44389;51.578;5.456;2022-09-09T14:38:37;7.88;;;1.95;;
58621;SDS011;44389;51.578;5.456;2022-09-09T14:41:07;5.63;;;2.10;;
58621;SDS011;44389;51.578;5.456;2022-09-09T14:43:35;6.70;;;2.05;;
58621;SDS011;44389;51.578;5.456;2022-09-09T14:46:09;8.68;;;2.00;;
58621;SDS011;44389;51.578;5.456;2022-09-09T14:48:36;5.68;;;1.80;;
58621;SDS011;44389;51.578;5.456;2022-09-09T14:53:32;5.00;;;1.63;;
58621;SDS011;44389;51.578;5.456;2022-09-09T14:56:04;7.75;;;2.00;;
58621;SDS011;44389;51.578;5.456;2022-09-09T14:58:31;9.23;;;2.20;;
58621;SDS011;44389;51.578;5.456;2022-09-09T15:01:01;5.72;;;1.60;;
58621;SDS011;44389;51.578;5.456;2022-09-09T15:03:27;6.38;;;1.83;;
58621;SDS011;44389;51.578;5.456;2022-09-09T15:05:53;5.80;;;2.28;;
58621;SDS011;44389;51.578;5.456;2022-09-09T15:08:18;8.20;;;2.17;;
58621;SDS011;44389;51.578;5.456;2022-09-09T15:10:43;7.72;;;1.90;;
58621;SDS011;44389;51.578;5.456;2022-09-09T15:13:09;6.88;;;1.88;;
58621;SDS011;44389;51.578;5.456;2022-09-09T15:15:35;5.88;;;2.42;;
58621;SDS011;44389;51.578;5.456;2022-09-09T15:18:00;5.70;;;2.10;;
58621;SDS011;44389;51.578;5.456;2022-09-09T15:20:25;12.85;;;3.95;;
58621;SDS011;44389;51.578;5.456;2022-09-09T15:22:50;14.10;;;2.95;;
58621;SDS011;44389;51.578;5.456;2022-09-09T15:25:17;9.57;;;2.08;;
58621;SDS011;44389;51.578;5.456;2022-09-09T15:27:43;8.93;;;2.38;;
58621;SDS011;44389;51.578;5.456;2022-09-09T15:30:09;5.57;;;1.90;;
58621;SDS011;44389;51.578;5.456;2022-09-09T15:32:34;9.65;;;1.90;;
58621;SDS011;44389;51.578;5.456;2022-09-09T15:35:00;5.28;;;1.60;;
58621;SDS011;44389;51.578;5.456;2022-09-09T15:37:26;4.88;;;1.40;;
58621;SDS011;44389;51.578;5.456;2022-09-09T15:39:51;7.97;;;1.70;;
58621;SDS011;44389;51.578;5.456;2022-09-09T15:42:16;3.65;;;1.42;;
58621;SDS011;44389;51.578;5.456;2022-09-09T15:44:42;4.63;;;2.10;;
58621;SDS011;44389;51.578;5.456;2022-09-09T15:47:07;5.07;;;1.60;;
58621;SDS011;44389;51.578;5.456;2022-09-09T15:49:35;3.53;;;1.70;;
58621;SDS011;44389;51.578;5.456;2022-09-09T15:52:00;3.80;;;1.40;;
58621;SDS011;44389;51.578;5.456;2022-09-09T15:54:28;5.78;;;1.88;;
58621;SDS011;44389;51.578;5.456;2022-09-09T15:56:58;4.38;;;1.58;;
58621;SDS011;44389;51.578;5.456;2022-09-09T15:59:26;3.50;;;1.10;;
58621;SDS011;44389;51.578;5.456;2022-09-09T16:01:53;2.92;;;1.17;;
58621;SDS011;44389;51.578;5.456;2022-09-09T16:04:20;4.00;;;1.42;;
58621;SDS011;44389;51.578;5.456;2022-09-09T16:06:59;3.50;;;1.67;;
58621;SDS011;44389;51.578;5.456;2022-09-09T16:09:26;3.23;;;1.60;;
58621;SDS011;44389;51.578;5.456;2022-09-09T16:11:52;5.57;;;1.60;;
58621;SDS011;44389;51.578;5.456;2022-09-09T16:14:18;4.45;;;1.42;;
58621;SDS011;44389;51.578;5.456;2022-09-09T16:16:44;5.45;;;1.90;;
58621;SDS011;44389;51.578;5.456;2022-09-09T16:19:10;3.63;;;1.73;;
58621;SDS011;44389;51.578;5.456;2022-09-09T16:21:44;4.07;;;1.60;;
58621;SDS011;44389;51.578;5.456;2022-09-09T16:24:12;4.47;;;1.95;;
58621;SDS011;44389;51.578;5.456;2022-09-09T16:26:40;7.07;;;2.28;;
58621;SDS011;44389;51.578;5.456;2022-09-09T16:29:09;5.97;;;2.53;;
58621;SDS011;44389;51.578;5.456;2022-09-09T16:31:35;7.13;;;2.95;;
58621;SDS011;44389;51.578;5.456;2022-09-09T16:34:00;7.50;;;2.85;;
58621;SDS011;44389;51.578;5.456;2022-09-09T16:36:28;7.30;;;3.03;;
58621;SDS011;44389;51.578;5.456;2022-09-09T16:38:59;8.45;;;3.25;;
58621;SDS011;44389;51.578;5.456;2022-09-09T16:41:29;5.97;;;3.50;;
58621;SDS011;44389;51.578;5.456;2022-09-09T16:43:56;8.10;;;3.80;;
58621;SDS011;44389;51.578;5.456;2022-09-09T16:46:27;7.65;;;4.18;;
58621;SDS011;44389;51.578;5.456;2022-09-09T16:48:55;8.90;;;4.88;;
58621;SDS011;44389;51.578;5.456;2022-09-09T16:51:24;7.70;;;4.90;;
58621;SDS011;44389;51.578;5.456;2022-09-09T16:53:55;8.73;;;4.97;;
58621;SDS011;44389;51.578;5.456;2022-09-09T16:58:52;10.15;;;5.50;;
58621;SDS011;44389;51.578;5.456;2022-09-09T17:01:23;7.70;;;5.13;;
58621;SDS011;44389;51.578;5.456;2022-09-09T17:03:53;9.90;;;6.10;;
58621;SDS011;44389;51.578;5.456;2022-09-09T17:06:20;8.73;;;6.00;;
58621;SDS011;44389;51.578;5.456;2022-09-09T17:08:46;9.40;;;6.20;;
58621;SDS011;44389;51.578;5.456;2022-09-09T17:11:17;7.75;;;5.18;;
58621;SDS011;44389;51.578;5.456;2022-09-09T17:13:44;7.22;;;5.30;;